createdAt,value
2023-03-16T07:28:59.195Z,5.20
2023-03-16T07:31:27.370Z,5.30
2023-03-16T07:33:57.583Z,5.30
2023-03-16T07:36:49.599Z,5.20
2023-03-16T07:39:17.851Z,5.30
2023-03-16T07:41:46.102Z,5.30
2023-03-16T07:44:20.609Z,5.30
2023-03-16T07:46:49.275Z,5.30
2023-03-16T07:49:17.000Z,5.50
2023-03-16T07:51:46.084Z,5.50
2023-03-16T07:54:18.536Z,5.50
2023-03-16T07:56:49.260Z,5.60
2023-03-16T07:59:38.577Z,5.50
2023-03-16T08:02:06.909Z,5.60
2023-03-16T08:04:34.462Z,5.50
2023-03-16T08:07:03.177Z,5.60
2023-03-16T08:09:45.362Z,5.60
2023-03-16T08:12:17.351Z,5.70
2023-03-16T08:14:46.468Z,5.70
2023-03-16T08:17:18.741Z,5.70
2023-03-16T08:19:47.535Z,5.80
2023-03-16T08:22:15.608Z,5.70
2023-03-16T08:24:45.721Z,5.70
2023-03-16T08:27:16.204Z,5.80
2023-03-16T08:29:51.591Z,5.90
2023-03-16T08:32:19.505Z,5.80
2023-03-16T08:34:48.545Z,5.90
2023-03-16T08:37:16.507Z,6.00
2023-03-16T08:39:45.876Z,5.90
2023-03-16T08:42:16.829Z,6.00
2023-03-16T08:44:48.334Z,6.00
2023-03-16T08:47:16.198Z,5.90
2023-03-16T08:49:44.952Z,6.00
2023-03-16T08:52:15.940Z,6.00
2023-03-16T08:54:59.869Z,6.10
2023-03-16T08:57:30.446Z,6.10
2023-03-16T08:59:57.696Z,6.20
2023-03-16T09:02:25.746Z,6.20
2023-03-16T09:04:53.234Z,6.10
2023-03-16T09:07:20.577Z,6.20
2023-03-16T09:09:47.827Z,6.20
2023-03-16T09:12:15.166Z,6.30
2023-03-16T09:14:42.548Z,6.50
2023-03-16T09:17:11.809Z,6.60
2023-03-16T09:20:01.328Z,6.80
2023-03-16T09:22:26.709Z,6.80
2023-03-16T09:24:53.889Z,6.80
2023-03-16T09:27:21.226Z,6.70
2023-03-16T09:29:49.549Z,6.60
2023-03-16T09:32:16.954Z,6.70
2023-03-16T09:34:44.932Z,6.70
2023-03-16T09:37:12.254Z,6.70
2023-03-16T09:39:39.783Z,6.70
2023-03-16T09:42:36.804Z,7.00
2023-03-16T09:45:13.304Z,7.10
2023-03-16T09:47:41.745Z,7.10
2023-03-16T09:50:16.643Z,7.00
2023-03-16T09:53:02.589Z,7.10
2023-03-16T09:55:32.485Z,7.30
2023-03-16T09:58:01.212Z,7.40
2023-03-16T10:00:39.528Z,7.40
2023-03-16T10:03:43.201Z,7.50
2023-03-16T10:06:13.884Z,7.50
2023-03-16T10:08:53.206Z,7.50
2023-03-16T10:11:36.659Z,7.50
2023-03-16T10:14:30.826Z,7.60
2023-03-16T10:17:19.323Z,7.70
2023-03-16T10:19:51.426Z,7.70
2023-03-16T10:22:26.544Z,7.60
2023-03-16T10:25:03.892Z,7.60
2023-03-16T10:27:34.094Z,7.60
2023-03-16T10:30:03.240Z,7.60
2023-03-16T10:32:36.696Z,7.80
2023-03-16T10:35:39.806Z,7.90
2023-03-16T10:38:09.245Z,7.80
2023-03-16T10:40:39.323Z,7.70
2023-03-16T10:43:16.736Z,7.70
2023-03-16T10:45:46.548Z,7.80
2023-03-16T10:48:21.333Z,7.90
2023-03-16T10:50:55.807Z,8.10
2023-03-16T10:53:26.472Z,8.10
2023-03-16T10:56:20.108Z,8.10
2023-03-16T10:58:47.494Z,8.20
2023-03-16T11:01:29.331Z,8.30
2023-03-16T11:03:59.364Z,8.20
2023-03-16T11:06:30.748Z,8.20
2023-03-16T11:09:19.972Z,8.20
2023-03-16T11:11:49.617Z,8.20
2023-03-16T11:14:21.288Z,8.30
2023-03-16T11:17:00.329Z,8.30
2023-03-16T11:19:46.473Z,8.40
2023-03-16T11:22:26.448Z,8.40
2023-03-16T11:25:03.063Z,8.40
2023-03-16T11:27:33.131Z,8.30
2023-03-16T11:30:29.330Z,8.40
2023-03-16T11:33:00.888Z,8.40
2023-03-16T11:35:58.643Z,8.50
2023-03-16T11:38:55.092Z,8.60
2023-03-16T11:41:37.519Z,8.60
2023-03-16T11:44:10.616Z,8.50
2023-03-16T11:46:51.421Z,8.40
2023-03-16T11:49:32.563Z,8.50
2023-03-16T11:52:12.090Z,8.70
2023-03-16T11:55:11.277Z,8.80
2023-03-16T11:58:11.925Z,8.80
2023-03-16T12:00:54.325Z,8.90
2023-03-16T12:03:42.630Z,9.10
2023-03-16T12:06:38.706Z,9.10
2023-03-16T12:09:12.488Z,9.10
2023-03-16T12:11:48.548Z,9.20
2023-03-16T12:14:27.190Z,9.10
2023-03-16T12:17:03.137Z,9.00
2023-03-16T12:19:52.263Z,8.80
2023-03-16T12:22:51.565Z,8.80
2023-03-16T12:25:24.904Z,8.70
2023-03-16T12:27:59.022Z,8.80
2023-03-16T12:31:00.121Z,8.80
2023-03-16T12:33:42.739Z,8.90
2023-03-16T12:36:16.881Z,8.90
2023-03-16T12:38:57.324Z,8.90
2023-03-16T12:41:24.868Z,8.70
2023-03-16T12:44:15.776Z,8.50
2023-03-16T12:46:49.849Z,8.50
2023-03-16T12:49:17.388Z,9.00
2023-03-16T12:51:45.580Z,9.40
2023-03-16T12:54:25.430Z,9.40
2023-03-16T12:57:00.652Z,9.20
2023-03-16T12:59:43.938Z,9.00
2023-03-16T13:02:21.329Z,8.90
2023-03-16T13:04:59.055Z,9.30
2023-03-16T13:07:29.756Z,9.40
2023-03-16T13:10:12.568Z,9.10
2023-03-16T13:12:41.889Z,8.80
2023-03-16T13:15:18.034Z,8.70
2023-03-16T13:17:47.206Z,10.10
2023-03-16T13:20:29.184Z,11.20
2023-03-16T13:23:21.025Z,11.60
2023-03-16T13:26:10.460Z,13.70
2023-03-16T13:28:39.206Z,13.30
2023-03-16T13:31:47.769Z,12.00
2023-03-16T13:34:22.034Z,11.20
2023-03-16T13:36:53.991Z,12.70
2023-03-16T13:39:29.708Z,14.80
2023-03-16T13:42:18.163Z,17.00
2023-03-16T13:44:45.568Z,18.00
2023-03-16T13:47:19.992Z,16.60
2023-03-16T13:49:55.023Z,14.20
2023-03-16T13:52:27.325Z,12.40
2023-03-16T13:54:55.070Z,11.50
2023-03-16T13:57:25.599Z,11.50
2023-03-16T14:00:01.099Z,12.70
2023-03-16T14:02:29.517Z,12.20
2023-03-16T14:04:56.873Z,11.50
2023-03-16T14:07:26.794Z,11.10
2023-03-16T14:09:58.644Z,12.20
2023-03-16T14:12:26.335Z,12.80
2023-03-16T14:14:56.437Z,14.10
2023-03-16T14:17:24.385Z,17.20
2023-03-16T14:19:57.206Z,19.60
2023-03-16T14:22:37.291Z,19.80
2023-03-16T14:25:06.566Z,20.00
2023-03-16T14:27:39.921Z,20.20
2023-03-16T14:30:26.198Z,21.50
2023-03-16T14:33:06.806Z,19.30
2023-03-16T14:35:42.232Z,17.90
2023-03-16T14:38:33.270Z,16.50
2023-03-16T14:41:23.722Z,15.10
2023-03-16T14:44:01.827Z,14.00
2023-03-16T14:46:42.634Z,15.00
2023-03-16T14:49:21.234Z,15.70
2023-03-16T14:51:50.802Z,16.10
2023-03-16T14:54:21.842Z,15.90
2023-03-16T14:56:52.291Z,15.30
2023-03-16T14:59:20.404Z,15.20
2023-03-16T15:01:49.684Z,16.10
2023-03-16T15:04:20.719Z,16.50
2023-03-16T15:06:48.493Z,16.10
2023-03-16T15:09:37.245Z,15.70
2023-03-16T15:12:05.200Z,16.10
2023-03-16T15:14:50.997Z,14.40
2023-03-16T15:17:18.245Z,13.20
2023-03-16T15:19:45.426Z,12.40
2023-03-16T15:22:13.533Z,12.50
2023-03-16T15:24:40.870Z,12.40
2023-03-16T15:27:35.824Z,12.20
2023-03-16T15:30:03.646Z,12.10
2023-03-16T15:32:31.019Z,11.50
2023-03-16T15:34:58.634Z,10.90
2023-03-16T15:37:27.859Z,10.60
2023-03-16T15:39:55.232Z,10.30
2023-03-16T15:42:22.845Z,10.10
2023-03-16T15:44:50.082Z,9.80
2023-03-16T15:47:17.352Z,9.70
2023-03-16T15:49:48.387Z,9.60
2023-03-16T15:52:30.810Z,9.70
2023-03-16T15:55:03.064Z,9.90
2023-03-16T15:57:31.783Z,10.00
2023-03-16T15:59:59.479Z,9.70
2023-03-16T16:02:31.261Z,9.60
2023-03-16T16:04:59.585Z,9.50
2023-03-16T16:07:27.443Z,9.40
2023-03-16T16:09:54.722Z,9.40
2023-03-16T16:12:26.970Z,9.20
2023-03-16T16:14:56.429Z,9.20
2023-03-16T16:17:36.600Z,9.20
2023-03-16T16:20:22.898Z,9.10
2023-03-16T16:22:52.039Z,9.20
2023-03-16T16:25:21.613Z,9.30
2023-03-16T16:27:49.166Z,9.30
2023-03-16T16:30:34.913Z,9.30
2023-03-16T16:33:02.252Z,9.30
2023-03-16T16:35:30.164Z,9.40
2023-03-16T16:37:57.562Z,9.30
2023-03-16T16:40:31.631Z,9.20
2023-03-16T16:43:03.780Z,9.10
2023-03-16T16:45:32.042Z,9.00
2023-03-16T16:47:59.410Z,9.00
2023-03-16T16:50:28.435Z,8.90
2023-03-16T16:52:57.670Z,8.90
2023-03-16T16:55:25.259Z,8.90
2023-03-16T16:57:54.955Z,8.80
2023-03-16T17:00:24.796Z,8.70
2023-03-16T17:02:54.383Z,8.60
2023-03-16T17:05:27.524Z,8.50
2023-03-16T17:07:55.219Z,8.40
2023-03-16T17:10:27.345Z,8.40
2023-03-16T17:12:58.554Z,8.30
2023-03-16T17:15:28.260Z,8.30
2023-03-16T17:18:03.664Z,8.30
2023-03-16T17:20:31.284Z,8.30
2023-03-16T17:22:58.923Z,8.20
2023-03-16T17:25:27.560Z,8.30
2023-03-16T17:27:57.306Z,8.20
2023-03-16T17:30:30.283Z,8.30
2023-03-16T17:33:06.130Z,8.20
2023-03-16T17:35:33.530Z,8.20
2023-03-16T17:38:00.866Z,8.20
2023-03-16T17:40:28.893Z,8.20
2023-03-16T17:42:56.239Z,8.10
2023-03-16T17:45:27.867Z,8.10
2023-03-16T17:47:56.212Z,8.00
2023-03-16T17:50:31.547Z,8.00
2023-03-16T17:52:59.018Z,7.90
2023-03-16T17:55:26.569Z,7.90
2023-03-16T17:57:55.321Z,7.90
2023-03-16T18:00:22.965Z,8.00
2023-03-16T18:02:59.251Z,7.90
2023-03-16T18:05:32.695Z,7.90
2023-03-16T18:08:12.236Z,7.80
2023-03-16T18:10:40.043Z,7.80
2023-03-16T18:13:15.734Z,7.80
2023-03-16T18:15:44.393Z,7.70
2023-03-16T18:18:18.248Z,7.60
2023-03-16T18:20:46.192Z,7.60
2023-03-16T18:23:25.577Z,7.60
2023-03-16T18:25:54.886Z,7.50
2023-03-16T18:28:23.300Z,7.50
2023-03-16T18:30:52.789Z,7.60
2023-03-16T18:33:50.663Z,7.50
2023-03-16T18:36:27.689Z,7.50
2023-03-16T18:38:56.527Z,7.50
2023-03-16T18:41:35.038Z,7.40
2023-03-16T18:44:13.041Z,7.40
2023-03-16T18:46:40.383Z,7.40
2023-03-16T18:49:13.800Z,7.30
2023-03-16T18:51:42.740Z,7.30
2023-03-16T18:54:32.736Z,7.30
2023-03-16T18:57:00.001Z,7.40
2023-03-16T18:59:27.361Z,7.30
2023-03-16T19:01:54.655Z,7.40
2023-03-16T19:04:27.743Z,7.40
2023-03-16T19:06:56.230Z,7.40
2023-03-16T19:09:27.055Z,7.30
2023-03-16T19:11:54.364Z,7.30
2023-03-16T19:14:27.298Z,7.20
2023-03-16T19:16:55.707Z,7.10
2023-03-16T19:19:25.621Z,7.10
2023-03-16T19:21:58.963Z,7.10
2023-03-16T19:24:29.997Z,7.10
2023-03-16T19:26:57.756Z,7.10
2023-03-16T19:29:35.286Z,7.10
2023-03-16T19:32:02.623Z,7.10
2023-03-16T19:34:29.913Z,7.00
2023-03-16T19:36:57.133Z,7.10
2023-03-16T19:39:27.876Z,7.00
2023-03-16T19:41:58.036Z,7.00
2023-03-16T19:44:27.595Z,7.00
2023-03-16T19:46:55.280Z,7.00
2023-03-16T19:49:26.123Z,7.00
2023-03-16T19:51:54.782Z,6.90
2023-03-16T19:54:32.093Z,6.90
2023-03-16T19:57:04.365Z,6.90
2023-03-16T19:59:34.942Z,6.80
2023-03-16T20:02:02.364Z,6.80
2023-03-16T20:04:33.428Z,6.80
2023-03-16T20:07:00.685Z,6.80
2023-03-16T20:09:28.072Z,6.80
2023-03-16T20:11:55.397Z,6.80
2023-03-16T20:14:33.301Z,6.80
2023-03-16T20:17:03.746Z,6.80
2023-03-16T20:19:31.215Z,6.80
2023-03-16T20:21:58.867Z,6.70
2023-03-16T20:24:29.454Z,6.80
2023-03-16T20:26:56.926Z,6.80
2023-03-16T20:29:32.637Z,6.80
2023-03-16T20:32:01.421Z,6.70
2023-03-16T20:34:31.408Z,6.70
2023-03-16T20:37:00.017Z,6.70
2023-03-16T20:39:28.046Z,6.60
2023-03-16T20:41:55.693Z,6.70
2023-03-16T20:44:25.564Z,6.70
2023-03-16T20:46:52.811Z,6.60
2023-03-16T20:49:22.942Z,6.60
2023-03-16T20:51:50.994Z,6.60
2023-03-16T20:54:18.721Z,6.60
2023-03-16T20:56:47.320Z,6.60
2023-03-16T20:59:21.939Z,6.60
2023-03-16T21:01:49.949Z,6.60
2023-03-16T21:04:26.264Z,6.50
2023-03-16T21:06:54.008Z,6.60
2023-03-16T21:09:21.392Z,6.60
2023-03-16T21:11:49.454Z,6.60
2023-03-16T21:14:20.985Z,6.50
2023-03-16T21:16:48.834Z,6.50
2023-03-16T21:19:18.593Z,6.40
2023-03-16T21:21:46.592Z,6.40
2023-03-16T21:24:14.028Z,6.40
2023-03-16T21:26:43.228Z,6.50
2023-03-16T21:29:18.370Z,6.40
2023-03-16T21:31:45.624Z,6.40
2023-03-16T21:34:39.146Z,6.40
2023-03-16T21:37:13.809Z,6.40
2023-03-16T21:39:41.792Z,6.40
2023-03-16T21:42:09.216Z,6.30
2023-03-16T21:44:36.504Z,6.40
2023-03-16T21:47:06.641Z,6.40
2023-03-16T21:49:34.032Z,6.40
2023-03-16T21:52:02.374Z,6.40
2023-03-16T21:54:29.606Z,6.40
2023-03-16T21:56:57.161Z,6.30
2023-03-16T21:59:24.497Z,6.30
2023-03-16T22:02:01.709Z,6.40
2023-03-16T22:04:29.791Z,6.40
2023-03-16T22:06:57.074Z,6.40
2023-03-16T22:09:28.837Z,6.40
2023-03-16T22:11:56.175Z,6.30
2023-03-16T22:14:23.331Z,6.10
2023-03-16T22:16:50.602Z,6.00
2023-03-16T22:19:18.207Z,5.90
2023-03-16T22:21:47.276Z,5.90
2023-03-16T22:24:19.230Z,5.70
2023-03-16T22:26:47.728Z,5.50
2023-03-16T22:29:25.444Z,5.50
2023-03-16T22:32:04.216Z,5.40
2023-03-16T22:34:42.163Z,5.40
2023-03-16T22:37:12.596Z,5.40
2023-03-16T22:39:40.723Z,5.40
2023-03-16T22:42:38.732Z,5.20
2023-03-16T22:45:26.211Z,5.10
2023-03-16T22:47:54.683Z,5.10
2023-03-16T22:50:24.322Z,5.10
2023-03-16T22:52:55.677Z,5.10
2023-03-16T22:55:28.713Z,5.00
2023-03-16T22:58:13.041Z,5.00
2023-03-16T23:00:40.823Z,5.00
2023-03-16T23:03:17.805Z,4.90
2023-03-16T23:05:45.343Z,4.90
2023-03-16T23:08:22.867Z,4.90
2023-03-16T23:10:51.857Z,4.90
2023-03-16T23:13:22.011Z,5.00
2023-03-16T23:15:50.092Z,5.10
2023-03-16T23:18:19.013Z,5.10
2023-03-16T23:20:47.757Z,5.10
2023-03-16T23:23:16.128Z,5.00
2023-03-16T23:25:44.487Z,4.90
2023-03-16T23:28:18.720Z,4.90
2023-03-16T23:30:46.548Z,4.90
2023-03-16T23:33:16.726Z,4.90
2023-03-16T23:35:46.701Z,4.80
2023-03-16T23:38:14.238Z,4.90
2023-03-16T23:40:41.598Z,5.00
2023-03-16T23:43:09.452Z,5.00
2023-03-16T23:45:38.892Z,4.90
2023-03-16T23:48:11.414Z,4.80
2023-03-16T23:50:41.004Z,4.80
2023-03-16T23:53:14.215Z,4.80
2023-03-16T23:55:43.355Z,4.70
2023-03-16T23:58:12.919Z,4.70
